sensor_id;sensor_type;location;lat;lon;timestamp;pressure;altitude;pressure_sealevel;temperature;humidity
19783;BME280;10051;40.294;-3.754;2023-12-29T00:01:14;94956.88;;;5.30;98.44
19783;BME280;10051;40.294;-3.754;2023-12-29T00:03:40;94806.22;;;4.19;100.00
19783;BME280;10051;40.294;-3.754;2023-12-29T00:06:06;94850.41;;;4.37;100.00
19783;BME280;10051;40.294;-3.754;2023-12-29T00:08:32;94801.31;;;4.10;100.00
19783;BME280;10051;40.294;-3.754;2023-12-29T00:10:57;94835.19;;;4.22;100.00
19783;BME280;10051;40.294;-3.754;2023-12-29T00:13:23;94921.88;;;4.84;100.00
19783;BME280;10051;40.294;-3.754;2023-12-29T00:15:53;94966.72;;;5.28;100.00
19783;BME280;10051;40.294;-3.754;2023-12-29T00:18:19;94807.03;;;4.31;100.00
19783;BME280;10051;40.294;-3.754;2023-12-29T00:20:45;94850.69;;;4.59;100.00
19783;BME280;10051;40.294;-3.754;2023-12-29T00:23:11;94831.91;;;4.27;100.00
19783;BME280;10051;40.294;-3.754;2023-12-29T00:25:37;94830.81;;;4.35;100.00
19783;BME280;10051;40.294;-3.754;2023-12-29T00:28:03;94946.75;;;5.10;100.00
19783;BME280;10051;40.294;-3.754;2023-12-29T00:30:29;94869.81;;;4.53;100.00
19783;BME280;10051;40.294;-3.754;2023-12-29T00:32:55;94957.06;;;5.17;100.00
19783;BME280;10051;40.294;-3.754;2023-12-29T00:35:21;94830.38;;;4.38;100.00
19783;BME280;10051;40.294;-3.754;2023-12-29T00:37:47;94933.59;;;5.17;100.00
19783;BME280;10051;40.294;-3.754;2023-12-29T00:40:12;94902.75;;;5.02;100.00
19783;BME280;10051;40.294;-3.754;2023-12-29T00:42:38;94950.31;;;5.40;100.00
19783;BME280;10051;40.294;-3.754;2023-12-29T00:45:04;94932.38;;;5.19;99.83
19783;BME280;10051;40.294;-3.754;2023-12-29T00:47:30;94923.63;;;5.14;99.92
19783;BME280;10051;40.294;-3.754;2023-12-29T00:49:56;94932.25;;;5.14;99.92
19783;BME280;10051;40.294;-3.754;2023-12-29T00:52:21;94849.38;;;4.38;100.00
19783;BME280;10051;40.294;-3.754;2023-12-29T00:54:47;94940.59;;;4.93;100.00
19783;BME280;10051;40.294;-3.754;2023-12-29T00:57:12;94883.31;;;4.62;100.00
19783;BME280;10051;40.294;-3.754;2023-12-29T00:59:38;94814.31;;;4.10;100.00
19783;BME280;10051;40.294;-3.754;2023-12-29T01:02:06;94946.38;;;4.95;100.00
19783;BME280;10051;40.294;-3.754;2023-12-29T01:04:33;94760.16;;;3.89;100.00
19783;BME280;10051;40.294;-3.754;2023-12-29T01:06:58;94872.94;;;4.43;100.00
19783;BME280;10051;40.294;-3.754;2023-12-29T01:09:25;94846.69;;;4.45;100.00
19783;BME280;10051;40.294;-3.754;2023-12-29T01:11:51;94839.22;;;4.49;100.00
19783;BME280;10051;40.294;-3.754;2023-12-29T01:14:16;94809.56;;;4.50;100.00
19783;BME280;10051;40.294;-3.754;2023-12-29T01:16:42;94803.78;;;4.47;100.00
19783;BME280;10051;40.294;-3.754;2023-12-29T01:19:07;94861.03;;;4.90;100.00
19783;BME280;10051;40.294;-3.754;2023-12-29T01:21:33;94849.34;;;4.81;100.00
19783;BME280;10051;40.294;-3.754;2023-12-29T01:24:00;94840.97;;;4.79;100.00
19783;BME280;10051;40.294;-3.754;2023-12-29T01:26:26;94830.66;;;4.84;100.00
19783;BME280;10051;40.294;-3.754;2023-12-29T01:28:52;94859.78;;;4.93;100.00
19783;BME280;10051;40.294;-3.754;2023-12-29T01:31:20;94833.50;;;4.82;100.00
19783;BME280;10051;40.294;-3.754;2023-12-29T01:33:46;94865.81;;;5.05;100.00
19783;BME280;10051;40.294;-3.754;2023-12-29T01:36:18;94840.06;;;4.85;100.00
19783;BME280;10051;40.294;-3.754;2023-12-29T01:38:44;94845.41;;;4.90;100.00
19783;BME280;10051;40.294;-3.754;2023-12-29T01:41:09;94775.69;;;4.50;100.00
19783;BME280;10051;40.294;-3.754;2023-12-29T01:43:35;94797.81;;;4.83;100.00
19783;BME280;10051;40.294;-3.754;2023-12-29T01:46:00;94745.13;;;4.57;100.00
19783;BME280;10051;40.294;-3.754;2023-12-29T01:48:26;94821.63;;;4.98;100.00
19783;BME280;10051;40.294;-3.754;2023-12-29T01:50:53;94696.06;;;4.06;100.00
19783;BME280;10051;40.294;-3.754;2023-12-29T01:53:20;94701.84;;;4.08;100.00
19783;BME280;10051;40.294;-3.754;2023-12-29T01:55:46;94735.38;;;4.28;100.00
19783;BME280;10051;40.294;-3.754;2023-12-29T01:58:12;94735.63;;;4.39;100.00
19783;BME280;10051;40.294;-3.754;2023-12-29T02:00:39;94725.28;;;4.80;100.00
19783;BME280;10051;40.294;-3.754;2023-12-29T02:03:05;94728.72;;;4.80;99.70
19783;BME280;10051;40.294;-3.754;2023-12-29T02:05:33;94725.63;;;4.71;100.00
19783;BME280;10051;40.294;-3.754;2023-12-29T02:08:00;94780.59;;;5.05;100.00
19783;BME280;10051;40.294;-3.754;2023-12-29T02:10:25;94818.44;;;5.08;100.00
19783;BME280;10051;40.294;-3.754;2023-12-29T02:12:51;94710.69;;;4.31;100.00
19783;BME280;10051;40.294;-3.754;2023-12-29T02:15:22;94669.72;;;4.14;100.00
19783;BME280;10051;40.294;-3.754;2023-12-29T02:17:54;94833.97;;;5.15;100.00
19783;BME280;10051;40.294;-3.754;2023-12-29T02:20:21;94799.41;;;4.84;100.00
19783;BME280;10051;40.294;-3.754;2023-12-29T02:22:47;94807.69;;;5.04;100.00
19783;BME280;10051;40.294;-3.754;2023-12-29T02:25:16;94844.03;;;5.35;100.00
19783;BME280;10051;40.294;-3.754;2023-12-29T02:30:29;94897.66;;;5.66;99.66
19783;BME280;10051;40.294;-3.754;2023-12-29T02:33:01;94895.28;;;5.65;99.49
19783;BME280;10051;40.294;-3.754;2023-12-29T02:35:28;94901.53;;;5.52;99.57
19783;BME280;10051;40.294;-3.754;2023-12-29T02:37:57;94917.88;;;5.71;99.34
19783;BME280;10051;40.294;-3.754;2023-12-29T02:40:25;94935.78;;;5.68;99.46
19783;BME280;10051;40.294;-3.754;2023-12-29T02:42:51;94849.97;;;5.06;99.52
19783;BME280;10051;40.294;-3.754;2023-12-29T02:45:17;94767.19;;;4.54;99.48
19783;BME280;10051;40.294;-3.754;2023-12-29T02:47:43;94900.97;;;5.38;99.73
19783;BME280;10051;40.294;-3.754;2023-12-29T02:50:10;94886.78;;;5.22;100.00
19783;BME280;10051;40.294;-3.754;2023-12-29T02:52:36;94868.88;;;5.02;100.00
19783;BME280;10051;40.294;-3.754;2023-12-29T02:55:01;94887.13;;;5.14;100.00
19783;BME280;10051;40.294;-3.754;2023-12-29T02:57:27;94867.84;;;5.03;100.00
19783;BME280;10051;40.294;-3.754;2023-12-29T02:59:52;94906.31;;;5.31;100.00
19783;BME280;10051;40.294;-3.754;2023-12-29T03:02:18;94821.84;;;4.85;99.71
19783;BME280;10051;40.294;-3.754;2023-12-29T03:04:43;94855.72;;;4.97;99.93
19783;BME280;10051;40.294;-3.754;2023-12-29T03:07:09;94744.22;;;4.39;99.69
19783;BME280;10051;40.294;-3.754;2023-12-29T03:09:35;94914.47;;;5.35;100.00
19783;BME280;10051;40.294;-3.754;2023-12-29T03:12:00;94843.69;;;4.84;100.00
19783;BME280;10051;40.294;-3.754;2023-12-29T03:14:26;94888.94;;;5.13;100.00
19783;BME280;10051;40.294;-3.754;2023-12-29T03:16:52;94870.47;;;5.15;100.00
19783;BME280;10051;40.294;-3.754;2023-12-29T03:19:17;94742.16;;;4.18;100.00
19783;BME280;10051;40.294;-3.754;2023-12-29T03:21:43;94782.13;;;4.35;100.00
19783;BME280;10051;40.294;-3.754;2023-12-29T03:24:08;94715.75;;;4.02;100.00
19783;BME280;10051;40.294;-3.754;2023-12-29T03:26:34;94716.75;;;4.01;100.00
19783;BME280;10051;40.294;-3.754;2023-12-29T03:28:59;94746.78;;;4.15;100.00
19783;BME280;10051;40.294;-3.754;2023-12-29T03:31:25;94758.47;;;4.37;100.00
19783;BME280;10051;40.294;-3.754;2023-12-29T03:33:50;94701.59;;;4.10;100.00
19783;BME280;10051;40.294;-3.754;2023-12-29T03:36:16;94730.94;;;4.29;100.00
19783;BME280;10051;40.294;-3.754;2023-12-29T03:38:41;94704.13;;;4.16;100.00
19783;BME280;10051;40.294;-3.754;2023-12-29T03:41:07;94720.84;;;4.21;100.00
19783;BME280;10051;40.294;-3.754;2023-12-29T03:43:32;94835.88;;;4.96;100.00
19783;BME280;10051;40.294;-3.754;2023-12-29T03:45:58;94801.09;;;4.90;100.00
19783;BME280;10051;40.294;-3.754;2023-12-29T03:48:24;94756.00;;;4.78;100.00
19783;BME280;10051;40.294;-3.754;2023-12-29T03:50:49;94674.22;;;4.07;100.00
19783;BME280;10051;40.294;-3.754;2023-12-29T03:53:14;94752.72;;;4.46;100.00
19783;BME280;10051;40.294;-3.754;2023-12-29T03:55:41;94717.56;;;4.13;100.00
19783;BME280;10051;40.294;-3.754;2023-12-29T03:58:06;94758.38;;;4.43;100.00
19783;BME280;10051;40.294;-3.754;2023-12-29T04:00:32;94810.50;;;4.91;100.00
19783;BME280;10051;40.294;-3.754;2023-12-29T04:02:57;94688.38;;;4.11;100.00
19783;BME280;10051;40.294;-3.754;2023-12-29T04:05:23;94617.28;;;3.75;100.00
19783;BME280;10051;40.294;-3.754;2023-12-29T04:07:51;94757.72;;;4.72;100.00
19783;BME280;10051;40.294;-3.754;2023-12-29T04:10:17;94738.22;;;4.63;100.00
19783;BME280;10051;40.294;-3.754;2023-12-29T04:12:42;94643.22;;;4.18;100.00
19783;BME280;10051;40.294;-3.754;2023-12-29T04:15:08;94690.22;;;4.35;100.00
19783;BME280;10051;40.294;-3.754;2023-12-29T04:17:34;94700.50;;;4.41;100.00
19783;BME280;10051;40.294;-3.754;2023-12-29T04:19:59;94652.25;;;4.03;100.00
19783;BME280;10051;40.294;-3.754;2023-12-29T04:22:25;94767.78;;;4.68;100.00
19783;BME280;10051;40.294;-3.754;2023-12-29T04:24:51;94713.97;;;4.38;100.00
19783;BME280;10051;40.294;-3.754;2023-12-29T04:27:17;94713.84;;;4.33;100.00
19783;BME280;10051;40.294;-3.754;2023-12-29T04:29:44;94712.94;;;4.27;100.00
19783;BME280;10051;40.294;-3.754;2023-12-29T04:32:10;94735.00;;;4.25;100.00
19783;BME280;10051;40.294;-3.754;2023-12-29T04:34:35;94647.44;;;3.76;100.00
19783;BME280;10051;40.294;-3.754;2023-12-29T04:37:01;94705.44;;;4.07;100.00
19783;BME280;10051;40.294;-3.754;2023-12-29T04:39:27;94704.88;;;4.05;100.00
19783;BME280;10051;40.294;-3.754;2023-12-29T04:41:52;94718.69;;;4.06;100.00
19783;BME280;10051;40.294;-3.754;2023-12-29T04:44:18;94760.47;;;4.23;100.00
19783;BME280;10051;40.294;-3.754;2023-12-29T04:46:43;94698.47;;;3.77;100.00
19783;BME280;10051;40.294;-3.754;2023-12-29T04:49:09;94694.94;;;3.60;100.00
19783;BME280;10051;40.294;-3.754;2023-12-29T04:51:35;94800.78;;;4.20;100.00
19783;BME280;10051;40.294;-3.754;2023-12-29T04:54:00;94732.78;;;3.86;100.00
19783;BME280;10051;40.294;-3.754;2023-12-29T04:56:26;94759.00;;;4.27;100.00
19783;BME280;10051;40.294;-3.754;2023-12-29T04:58:51;94687.22;;;3.95;100.00
19783;BME280;10051;40.294;-3.754;2023-12-29T05:01:17;94733.09;;;4.32;100.00
19783;BME280;10051;40.294;-3.754;2023-12-29T05:03:43;94684.97;;;4.11;100.00
19783;BME280;10051;40.294;-3.754;2023-12-29T05:06:08;94682.03;;;4.19;100.00
19783;BME280;10051;40.294;-3.754;2023-12-29T05:08:34;94710.47;;;4.44;100.00
19783;BME280;10051;40.294;-3.754;2023-12-29T05:11:00;94672.97;;;4.22;100.00
19783;BME280;10051;40.294;-3.754;2023-12-29T05:13:25;94727.81;;;4.63;100.00
19783;BME280;10051;40.294;-3.754;2023-12-29T05:15:51;94786.59;;;4.94;100.00
19783;BME280;10051;40.294;-3.754;2023-12-29T05:18:17;94744.13;;;4.70;100.00
19783;BME280;10051;40.294;-3.754;2023-12-29T05:20:42;94765.31;;;4.85;100.00
19783;BME280;10051;40.294;-3.754;2023-12-29T05:23:08;94655.44;;;4.05;100.00
19783;BME280;10051;40.294;-3.754;2023-12-29T05:25:34;94637.66;;;3.90;100.00
19783;BME280;10051;40.294;-3.754;2023-12-29T05:27:59;94647.16;;;3.96;100.00
19783;BME280;10051;40.294;-3.754;2023-12-29T05:30:24;94693.13;;;4.38;100.00
19783;BME280;10051;40.294;-3.754;2023-12-29T05:32:52;94674.00;;;4.21;100.00
19783;BME280;10051;40.294;-3.754;2023-12-29T05:35:17;94638.69;;;4.01;100.00
19783;BME280;10051;40.294;-3.754;2023-12-29T05:37:43;94757.25;;;4.75;100.00
19783;BME280;10051;40.294;-3.754;2023-12-29T05:40:08;94763.47;;;4.86;100.00
19783;BME280;10051;40.294;-3.754;2023-12-29T05:42:34;94724.38;;;4.50;100.00
19783;BME280;10051;40.294;-3.754;2023-12-29T05:44:59;94712.38;;;4.37;100.00
19783;BME280;10051;40.294;-3.754;2023-12-29T05:47:25;94720.78;;;4.39;100.00
19783;BME280;10051;40.294;-3.754;2023-12-29T05:49:50;94711.25;;;4.33;100.00
19783;BME280;10051;40.294;-3.754;2023-12-29T05:52:16;94639.69;;;3.88;100.00
19783;BME280;10051;40.294;-3.754;2023-12-29T05:54:42;94702.53;;;4.15;100.00
19783;BME280;10051;40.294;-3.754;2023-12-29T05:57:07;94723.50;;;4.32;100.00
19783;BME280;10051;40.294;-3.754;2023-12-29T05:59:32;94706.94;;;4.15;100.00
19783;BME280;10051;40.294;-3.754;2023-12-29T06:01:58;94774.25;;;4.54;100.00
19783;BME280;10051;40.294;-3.754;2023-12-29T06:04:23;94605.78;;;3.40;100.00
19783;BME280;10051;40.294;-3.754;2023-12-29T06:06:49;94776.03;;;4.53;100.00
19783;BME280;10051;40.294;-3.754;2023-12-29T06:09:15;94677.69;;;3.89;100.00
19783;BME280;10051;40.294;-3.754;2023-12-29T06:11:40;94669.34;;;3.99;100.00
19783;BME280;10051;40.294;-3.754;2023-12-29T06:14:06;94710.34;;;4.39;100.00
19783;BME280;10051;40.294;-3.754;2023-12-29T06:16:31;94651.94;;;4.11;100.00
19783;BME280;10051;40.294;-3.754;2023-12-29T06:18:57;94708.31;;;4.41;100.00
19783;BME280;10051;40.294;-3.754;2023-12-29T06:21:22;94678.41;;;4.44;100.00
19783;BME280;10051;40.294;-3.754;2023-12-29T06:23:48;94660.19;;;4.32;100.00
19783;BME280;10051;40.294;-3.754;2023-12-29T06:26:15;94681.03;;;4.56;100.00
19783;BME280;10051;40.294;-3.754;2023-12-29T06:28:42;94697.34;;;4.63;100.00
19783;BME280;10051;40.294;-3.754;2023-12-29T06:31:07;94728.59;;;4.87;100.00
19783;BME280;10051;40.294;-3.754;2023-12-29T06:33:33;94692.81;;;4.58;100.00
19783;BME280;10051;40.294;-3.754;2023-12-29T06:35:58;94675.47;;;4.40;100.00
19783;BME280;10051;40.294;-3.754;2023-12-29T06:38:24;94687.59;;;4.46;100.00
19783;BME280;10051;40.294;-3.754;2023-12-29T06:40:49;94744.69;;;4.84;100.00
19783;BME280;10051;40.294;-3.754;2023-12-29T06:43:15;94705.03;;;4.58;100.00
19783;BME280;10051;40.294;-3.754;2023-12-29T06:45:41;94766.88;;;4.98;100.00
19783;BME280;10051;40.294;-3.754;2023-12-29T06:48:07;94816.38;;;5.34;100.00
19783;BME280;10051;40.294;-3.754;2023-12-29T06:50:33;94776.06;;;5.01;100.00
19783;BME280;10051;40.294;-3.754;2023-12-29T06:52:58;94776.63;;;4.91;100.00
19783;BME280;10051;40.294;-3.754;2023-12-29T06:55:25;94727.91;;;4.56;100.00
19783;BME280;10051;40.294;-3.754;2023-12-29T06:57:51;94789.09;;;5.01;100.00
19783;BME280;10051;40.294;-3.754;2023-12-29T07:00:16;94773.47;;;4.89;100.00
19783;BME280;10051;40.294;-3.754;2023-12-29T07:02:42;94720.56;;;4.53;100.00
19783;BME280;10051;40.294;-3.754;2023-12-29T07:05:08;94708.31;;;4.41;100.00
19783;BME280;10051;40.294;-3.754;2023-12-29T07:07:35;94808.69;;;5.15;100.00
19783;BME280;10051;40.294;-3.754;2023-12-29T07:10:01;94820.13;;;5.26;100.00
19783;BME280;10051;40.294;-3.754;2023-12-29T07:12:32;94782.06;;;5.01;100.00
19783;BME280;10051;40.294;-3.754;2023-12-29T07:14:57;94782.25;;;5.12;100.00
19783;BME280;10051;40.294;-3.754;2023-12-29T07:17:23;94722.69;;;4.80;100.00
19783;BME280;10051;40.294;-3.754;2023-12-29T07:19:48;94763.03;;;4.89;100.00
19783;BME280;10051;40.294;-3.754;2023-12-29T07:22:15;94780.03;;;5.03;100.00
19783;BME280;10051;40.294;-3.754;2023-12-29T07:24:41;94765.28;;;4.97;100.00
19783;BME280;10051;40.294;-3.754;2023-12-29T07:27:06;94807.53;;;5.47;100.00
19783;BME280;10051;40.294;-3.754;2023-12-29T07:29:33;94712.03;;;4.93;100.00
19783;BME280;10051;40.294;-3.754;2023-12-29T07:31:59;94740.78;;;5.10;100.00
19783;BME280;10051;40.294;-3.754;2023-12-29T07:34:24;94792.69;;;5.35;100.00
19783;BME280;10051;40.294;-3.754;2023-12-29T07:36:50;94656.34;;;4.46;100.00
19783;BME280;10051;40.294;-3.754;2023-12-29T07:39:17;94814.22;;;5.43;100.00
19783;BME280;10051;40.294;-3.754;2023-12-29T07:41:42;94679.00;;;4.58;100.00
19783;BME280;10051;40.294;-3.754;2023-12-29T07:44:10;94819.63;;;5.53;100.00
19783;BME280;10051;40.294;-3.754;2023-12-29T07:46:38;94783.84;;;5.36;100.00
19783;BME280;10051;40.294;-3.754;2023-12-29T07:49:04;94615.13;;;4.20;100.00
19783;BME280;10051;40.294;-3.754;2023-12-29T07:51:29;94701.63;;;4.69;100.00
19783;BME280;10051;40.294;-3.754;2023-12-29T07:53:55;94711.69;;;4.78;100.00
19783;BME280;10051;40.294;-3.754;2023-12-29T07:56:21;94819.63;;;5.53;100.00
19783;BME280;10051;40.294;-3.754;2023-12-29T07:58:46;94736.84;;;4.96;100.00
19783;BME280;10051;40.294;-3.754;2023-12-29T08:01:12;94769.03;;;5.01;100.00
19783;BME280;10051;40.294;-3.754;2023-12-29T08:03:37;94691.00;;;4.59;100.00
19783;BME280;10051;40.294;-3.754;2023-12-29T08:06:03;94737.75;;;4.89;100.00
19783;BME280;10051;40.294;-3.754;2023-12-29T08:08:28;94691.09;;;4.52;100.00
19783;BME280;10051;40.294;-3.754;2023-12-29T08:10:54;94736.97;;;4.77;100.00
19783;BME280;10051;40.294;-3.754;2023-12-29T08:13:19;94826.72;;;5.29;100.00
19783;BME280;10051;40.294;-3.754;2023-12-29T08:15:45;94723.72;;;4.55;100.00
19783;BME280;10051;40.294;-3.754;2023-12-29T08:18:10;94750.56;;;4.79;100.00
19783;BME280;10051;40.294;-3.754;2023-12-29T08:20:36;94713.44;;;4.60;100.00
19783;BME280;10051;40.294;-3.754;2023-12-29T08:23:02;94827.38;;;5.24;100.00
19783;BME280;10051;40.294;-3.754;2023-12-29T08:25:28;94798.25;;;4.91;100.00
19783;BME280;10051;40.294;-3.754;2023-12-29T08:27:55;94827.50;;;5.17;100.00
19783;BME280;10051;40.294;-3.754;2023-12-29T08:30:21;94802.94;;;5.01;100.00
19783;BME280;10051;40.294;-3.754;2023-12-29T08:32:47;94807.22;;;5.08;100.00
19783;BME280;10051;40.294;-3.754;2023-12-29T08:35:12;94710.34;;;4.51;100.00
19783;BME280;10051;40.294;-3.754;2023-12-29T08:37:38;94754.19;;;4.90;100.00
19783;BME280;10051;40.294;-3.754;2023-12-29T08:40:04;94704.13;;;4.28;100.00
19783;BME280;10051;40.294;-3.754;2023-12-29T08:42:30;94783.19;;;4.82;100.00
19783;BME280;10051;40.294;-3.754;2023-12-29T08:44:55;94773.22;;;4.79;100.00
19783;BME280;10051;40.294;-3.754;2023-12-29T08:47:21;94792.03;;;4.93;100.00
19783;BME280;10051;40.294;-3.754;2023-12-29T08:49:46;94675.38;;;4.23;100.00
19783;BME280;10051;40.294;-3.754;2023-12-29T08:52:14;94780.94;;;4.85;100.00
19783;BME280;10051;40.294;-3.754;2023-12-29T08:54:39;94660.97;;;4.09;100.00
19783;BME280;10051;40.294;-3.754;2023-12-29T08:57:08;94768.22;;;4.65;100.00
19783;BME280;10051;40.294;-3.754;2023-12-29T08:59:33;94777.88;;;4.76;100.00
19783;BME280;10051;40.294;-3.754;2023-12-29T09:01:59;94703.09;;;4.41;100.00
19783;BME280;10051;40.294;-3.754;2023-12-29T09:04:25;94726.78;;;4.52;100.00
19783;BME280;10051;40.294;-3.754;2023-12-29T09:06:51;94736.31;;;4.70;100.00
19783;BME280;10051;40.294;-3.754;2023-12-29T09:09:19;94730.72;;;4.66;100.00
19783;BME280;10051;40.294;-3.754;2023-12-29T09:11:45;94833.16;;;5.38;100.00
19783;BME280;10051;40.294;-3.754;2023-12-29T09:14:10;94731.75;;;4.65;100.00
19783;BME280;10051;40.294;-3.754;2023-12-29T09:16:36;94712.38;;;4.49;100.00
19783;BME280;10051;40.294;-3.754;2023-12-29T09:19:02;94738.66;;;4.71;100.00
19783;BME280;10051;40.294;-3.754;2023-12-29T09:21:27;94786.13;;;5.09;100.00
19783;BME280;10051;40.294;-3.754;2023-12-29T09:23:53;94770.25;;;5.11;100.00
19783;BME280;10051;40.294;-3.754;2023-12-29T09:26:18;94739.69;;;4.94;100.00
19783;BME280;10051;40.294;-3.754;2023-12-29T09:28:44;94807.03;;;5.62;100.00
19783;BME280;10051;40.294;-3.754;2023-12-29T09:31:13;94770.44;;;5.45;100.00
19783;BME280;10051;40.294;-3.754;2023-12-29T09:33:38;94774.06;;;5.44;98.97
19783;BME280;10051;40.294;-3.754;2023-12-29T09:36:04;94852.56;;;5.95;98.74
19783;BME280;10051;40.294;-3.754;2023-12-29T09:38:30;94901.88;;;6.20;97.87
19783;BME280;10051;40.294;-3.754;2023-12-29T09:40:59;94912.34;;;6.20;97.73
19783;BME280;10051;40.294;-3.754;2023-12-29T09:43:31;94814.09;;;5.49;98.41
19783;BME280;10051;40.294;-3.754;2023-12-29T09:45:58;94853.88;;;5.69;100.00
19783;BME280;10051;40.294;-3.754;2023-12-29T09:48:26;94845.25;;;5.56;99.77
19783;BME280;10051;40.294;-3.754;2023-12-29T09:50:53;94842.66;;;5.56;100.00
19783;BME280;10051;40.294;-3.754;2023-12-29T09:53:20;94775.00;;;5.26;100.00
19783;BME280;10051;40.294;-3.754;2023-12-29T09:55:48;94938.31;;;6.27;100.00
19783;BME280;10051;40.294;-3.754;2023-12-29T09:58:15;94925.28;;;6.15;100.00
19783;BME280;10051;40.294;-3.754;2023-12-29T10:00:42;94835.94;;;5.60;99.57
19783;BME280;10051;40.294;-3.754;2023-12-29T10:03:08;94926.22;;;6.09;98.69
19783;BME280;10051;40.294;-3.754;2023-12-29T10:05:34;94924.63;;;6.08;100.00
19783;BME280;10051;40.294;-3.754;2023-12-29T10:08:02;94843.09;;;5.53;100.00
19783;BME280;10051;40.294;-3.754;2023-12-29T10:10:30;94936.59;;;6.33;100.00
19783;BME280;10051;40.294;-3.754;2023-12-29T10:12:56;94888.22;;;6.01;100.00
19783;BME280;10051;40.294;-3.754;2023-12-29T10:15:47;94944.06;;;6.41;99.73
19783;BME280;10051;40.294;-3.754;2023-12-29T10:21:01;94898.25;;;6.21;99.34
19783;BME280;10051;40.294;-3.754;2023-12-29T10:23:40;94856.88;;;6.01;98.29
19783;BME280;10051;40.294;-3.754;2023-12-29T10:26:10;94848.13;;;5.95;98.82
19783;BME280;10051;40.294;-3.754;2023-12-29T10:28:36;94867.06;;;6.03;99.42
19783;BME280;10051;40.294;-3.754;2023-12-29T10:31:04;94860.38;;;5.95;100.00
19783;BME280;10051;40.294;-3.754;2023-12-29T10:33:29;94875.72;;;6.03;100.00
19783;BME280;10051;40.294;-3.754;2023-12-29T10:36:02;94904.25;;;6.22;100.00
19783;BME280;10051;40.294;-3.754;2023-12-29T10:38:29;94868.31;;;6.12;100.00
19783;BME280;10051;40.294;-3.754;2023-12-29T10:41:16;94736.94;;;5.25;100.00
19783;BME280;10051;40.294;-3.754;2023-12-29T10:43:47;94814.50;;;5.70;100.00
19783;BME280;10051;40.294;-3.754;2023-12-29T10:46:17;94825.63;;;5.65;100.00
19783;BME280;10051;40.294;-3.754;2023-12-29T10:48:43;94825.41;;;5.67;100.00
19783;BME280;10051;40.294;-3.754;2023-12-29T10:51:08;94811.91;;;5.58;98.03
19783;BME280;10051;40.294;-3.754;2023-12-29T10:53:35;94794.19;;;5.60;97.68
19783;BME280;10051;40.294;-3.754;2023-12-29T10:56:01;94826.25;;;5.85;97.13
19783;BME280;10051;40.294;-3.754;2023-12-29T10:58:28;94789.91;;;5.66;98.31
19783;BME280;10051;40.294;-3.754;2023-12-29T11:00:59;94813.44;;;5.83;97.94
19783;BME280;10051;40.294;-3.754;2023-12-29T11:03:27;94829.31;;;5.93;98.33
19783;BME280;10051;40.294;-3.754;2023-12-29T11:05:59;94825.88;;;6.05;97.20
19783;BME280;10051;40.294;-3.754;2023-12-29T11:08:35;94783.50;;;5.74;96.52
19783;BME280;10051;40.294;-3.754;2023-12-29T11:11:01;94757.50;;;5.50;96.30
19783;BME280;10051;40.294;-3.754;2023-12-29T11:13:29;94812.91;;;6.10;95.87
19783;BME280;10051;40.294;-3.754;2023-12-29T11:15:55;94831.13;;;6.22;94.11
19783;BME280;10051;40.294;-3.754;2023-12-29T11:18:22;94762.44;;;5.63;93.46
19783;BME280;10051;40.294;-3.754;2023-12-29T11:20:48;94761.78;;;5.56;90.73
19783;BME280;10051;40.294;-3.754;2023-12-29T11:23:14;94839.13;;;6.15;90.76
19783;BME280;10051;40.294;-3.754;2023-12-29T11:25:40;94873.59;;;6.46;89.92
19783;BME280;10051;40.294;-3.754;2023-12-29T11:28:09;94783.41;;;5.98;88.78
19783;BME280;10051;40.294;-3.754;2023-12-29T11:30:35;94870.00;;;6.64;86.63
19783;BME280;10051;40.294;-3.754;2023-12-29T11:33:09;94787.19;;;6.19;86.94
19783;BME280;10051;40.294;-3.754;2023-12-29T11:35:49;94800.53;;;6.51;86.29
19783;BME280;10051;40.294;-3.754;2023-12-29T11:41:21;94831.38;;;6.83;85.93
19783;BME280;10051;40.294;-3.754;2023-12-29T11:43:57;94786.91;;;6.32;85.99
19783;BME280;10051;40.294;-3.754;2023-12-29T11:46:33;94802.84;;;6.48;86.70
19783;BME280;10051;40.294;-3.754;2023-12-29T11:49:00;94817.41;;;6.78;86.23
19783;BME280;10051;40.294;-3.754;2023-12-29T11:51:48;94793.34;;;6.59;86.75
19783;BME280;10051;40.294;-3.754;2023-12-29T11:54:24;94747.16;;;6.30;86.21
19783;BME280;10051;40.294;-3.754;2023-12-29T11:56:50;94769.66;;;6.48;86.49
19783;BME280;10051;40.294;-3.754;2023-12-29T11:59:18;94770.53;;;6.71;85.21
19783;BME280;10051;40.294;-3.754;2023-12-29T12:01:53;94801.09;;;7.05;80.64
19783;BME280;10051;40.294;-3.754;2023-12-29T12:04:38;94780.19;;;6.53;81.34
19783;BME280;10051;40.294;-3.754;2023-12-29T12:07:13;94869.88;;;7.05;81.92
19783;BME280;10051;40.294;-3.754;2023-12-29T12:09:39;94826.16;;;6.83;83.61
19783;BME280;10051;40.294;-3.754;2023-12-29T12:12:11;94843.72;;;6.71;84.38
19783;BME280;10051;40.294;-3.754;2023-12-29T12:14:47;94881.53;;;7.14;84.40
19783;BME280;10051;40.294;-3.754;2023-12-29T12:17:28;94825.16;;;7.07;84.27
19783;BME280;10051;40.294;-3.754;2023-12-29T12:20:03;94862.44;;;7.53;82.08
19783;BME280;10051;40.294;-3.754;2023-12-29T12:22:30;94839.47;;;7.38;84.92
19783;BME280;10051;40.294;-3.754;2023-12-29T12:25:00;94840.41;;;7.49;86.62
19783;BME280;10051;40.294;-3.754;2023-12-29T12:27:26;94754.75;;;6.83;87.57
19783;BME280;10051;40.294;-3.754;2023-12-29T12:29:53;94775.25;;;7.08;88.04
19783;BME280;10051;40.294;-3.754;2023-12-29T12:32:22;94770.72;;;7.21;86.02
19783;BME280;10051;40.294;-3.754;2023-12-29T12:34:47;94788.44;;;7.36;85.34
19783;BME280;10051;40.294;-3.754;2023-12-29T12:37:18;94762.50;;;7.34;84.92
19783;BME280;10051;40.294;-3.754;2023-12-29T12:39:44;94674.47;;;7.01;83.65
19783;BME280;10051;40.294;-3.754;2023-12-29T12:42:10;94683.41;;;7.27;82.21
19783;BME280;10051;40.294;-3.754;2023-12-29T12:44:40;94739.31;;;7.65;80.89
19783;BME280;10051;40.294;-3.754;2023-12-29T12:47:10;94788.41;;;8.02;79.12
19783;BME280;10051;40.294;-3.754;2023-12-29T12:49:40;94745.72;;;7.80;77.44
19783;BME280;10051;40.294;-3.754;2023-12-29T12:52:06;94742.44;;;7.89;77.77
19783;BME280;10051;40.294;-3.754;2023-12-29T12:54:32;94753.59;;;8.07;76.01
19783;BME280;10051;40.294;-3.754;2023-12-29T12:56:57;94676.88;;;7.52;73.92
19783;BME280;10051;40.294;-3.754;2023-12-29T12:59:23;94692.44;;;7.64;73.75